sensor_id;sensor_type;location;lat;lon;timestamp;P1;durP1;ratioP1;P2;durP2;ratioP2
40807;SDS011;26523;52.504;13.498;2023-02-20T00:02:14;8.38;;;1.50;;
40807;SDS011;26523;52.504;13.498;2023-02-20T00:04:40;1.92;;;1.17;;
40807;SDS011;26523;52.504;13.498;2023-02-20T00:07:06;2.38;;;1.10;;
40807;SDS011;26523;52.504;13.498;2023-02-20T00:09:32;3.67;;;1.33;;
40807;SDS011;26523;52.504;13.498;2023-02-20T00:11:57;4.70;;;1.30;;
40807;SDS011;26523;52.504;13.498;2023-02-20T00:14:23;4.82;;;1.25;;
40807;SDS011;26523;52.504;13.498;2023-02-20T00:16:49;3.08;;;1.63;;
40807;SDS011;26523;52.504;13.498;2023-02-20T00:19:14;2.17;;;1.17;;
40807;SDS011;26523;52.504;13.498;2023-02-20T00:21:43;6.93;;;1.45;;
40807;SDS011;26523;52.504;13.498;2023-02-20T00:24:13;2.08;;;1.25;;
40807;SDS011;26523;52.504;13.498;2023-02-20T00:26:49;3.78;;;1.35;;
40807;SDS011;26523;52.504;13.498;2023-02-20T00:29:17;4.00;;;1.67;;
40807;SDS011;26523;52.504;13.498;2023-02-20T00:31:53;9.45;;;1.98;;
40807;SDS011;26523;52.504;13.498;2023-02-20T00:34:21;4.03;;;1.65;;
40807;SDS011;26523;52.504;13.498;2023-02-20T00:36:48;5.43;;;2.15;;
40807;SDS011;26523;52.504;13.498;2023-02-20T00:39:13;2.67;;;1.25;;
40807;SDS011;26523;52.504;13.498;2023-02-20T00:41:39;2.58;;;1.70;;
40807;SDS011;26523;52.504;13.498;2023-02-20T00:44:05;6.28;;;2.22;;
40807;SDS011;26523;52.504;13.498;2023-02-20T00:46:31;1.98;;;0.98;;
40807;SDS011;26523;52.504;13.498;2023-02-20T00:48:57;4.15;;;1.30;;
40807;SDS011;26523;52.504;13.498;2023-02-20T00:51:23;5.35;;;1.70;;
40807;SDS011;26523;52.504;13.498;2023-02-20T00:53:48;6.15;;;1.80;;
40807;SDS011;26523;52.504;13.498;2023-02-20T00:56:14;6.53;;;1.88;;
40807;SDS011;26523;52.504;13.498;2023-02-20T00:58:40;7.72;;;2.35;;
40807;SDS011;26523;52.504;13.498;2023-02-20T01:01:06;5.40;;;2.35;;
40807;SDS011;26523;52.504;13.498;2023-02-20T01:03:32;5.32;;;1.58;;
40807;SDS011;26523;52.504;13.498;2023-02-20T01:05:58;3.90;;;1.88;;
40807;SDS011;26523;52.504;13.498;2023-02-20T01:08:23;4.40;;;2.22;;
40807;SDS011;26523;52.504;13.498;2023-02-20T01:10:49;5.32;;;1.73;;
40807;SDS011;26523;52.504;13.498;2023-02-20T01:13:15;4.13;;;2.13;;
40807;SDS011;26523;52.504;13.498;2023-02-20T01:15:41;5.30;;;1.55;;
40807;SDS011;26523;52.504;13.498;2023-02-20T01:18:07;8.30;;;2.20;;
40807;SDS011;26523;52.504;13.498;2023-02-20T01:20:32;6.07;;;2.50;;
40807;SDS011;26523;52.504;13.498;2023-02-20T01:22:58;5.32;;;2.15;;
40807;SDS011;26523;52.504;13.498;2023-02-20T01:25:24;2.63;;;1.58;;
40807;SDS011;26523;52.504;13.498;2023-02-20T01:27:49;4.90;;;1.90;;
40807;SDS011;26523;52.504;13.498;2023-02-20T01:30:15;6.20;;;1.92;;
40807;SDS011;26523;52.504;13.498;2023-02-20T01:32:41;4.13;;;2.05;;
40807;SDS011;26523;52.504;13.498;2023-02-20T01:35:07;6.47;;;2.17;;
40807;SDS011;26523;52.504;13.498;2023-02-20T01:37:33;2.25;;;1.20;;
40807;SDS011;26523;52.504;13.498;2023-02-20T01:39:59;6.18;;;2.03;;
40807;SDS011;26523;52.504;13.498;2023-02-20T01:42:26;4.28;;;1.77;;
40807;SDS011;26523;52.504;13.498;2023-02-20T01:44:54;5.90;;;2.25;;
40807;SDS011;26523;52.504;13.498;2023-02-20T01:47:38;9.43;;;1.85;;
40807;SDS011;26523;52.504;13.498;2023-02-20T01:50:04;2.65;;;1.52;;
40807;SDS011;26523;52.504;13.498;2023-02-20T01:52:32;7.13;;;2.83;;
40807;SDS011;26523;52.504;13.498;2023-02-20T01:57:29;4.28;;;2.00;;
40807;SDS011;26523;52.504;13.498;2023-02-20T02:00:03;6.05;;;2.15;;
40807;SDS011;26523;52.504;13.498;2023-02-20T02:02:52;8.80;;;2.28;;
40807;SDS011;26523;52.504;13.498;2023-02-20T02:05:26;5.10;;;2.15;;
40807;SDS011;26523;52.504;13.498;2023-02-20T02:07:54;3.40;;;1.80;;
40807;SDS011;26523;52.504;13.498;2023-02-20T02:10:25;5.28;;;2.03;;
40807;SDS011;26523;52.504;13.498;2023-02-20T02:13:00;6.13;;;1.90;;
40807;SDS011;26523;52.504;13.498;2023-02-20T02:15:27;7.00;;;2.58;;
40807;SDS011;26523;52.504;13.498;2023-02-20T02:31:55;2.85;;;2.03;;
40807;SDS011;26523;52.504;13.498;2023-02-20T02:39:29;4.47;;;1.70;;
40807;SDS011;26523;52.504;13.498;2023-02-20T02:50:38;10.05;;;2.42;;
40807;SDS011;26523;52.504;13.498;2023-02-20T02:53:07;3.67;;;1.42;;
40807;SDS011;26523;52.504;13.498;2023-02-20T02:55:35;6.13;;;2.33;;
40807;SDS011;26523;52.504;13.498;2023-02-20T02:58:02;4.75;;;1.83;;
40807;SDS011;26523;52.504;13.498;2023-02-20T03:02:58;5.93;;;1.75;;
40807;SDS011;26523;52.504;13.498;2023-02-20T03:06:00;5.70;;;2.45;;
40807;SDS011;26523;52.504;13.498;2023-02-20T03:11:16;3.50;;;2.28;;
40807;SDS011;26523;52.504;13.498;2023-02-20T03:13:45;7.82;;;2.40;;
40807;SDS011;26523;52.504;13.498;2023-02-20T03:19:43;5.40;;;2.50;;
40807;SDS011;26523;52.504;13.498;2023-02-20T03:22:12;9.07;;;2.15;;
40807;SDS011;26523;52.504;13.498;2023-02-20T03:24:43;5.35;;;2.15;;
40807;SDS011;26523;52.504;13.498;2023-02-20T03:27:27;6.60;;;2.42;;
40807;SDS011;26523;52.504;13.498;2023-02-20T03:30:03;5.07;;;2.42;;
40807;SDS011;26523;52.504;13.498;2023-02-20T03:32:33;2.85;;;1.55;;
40807;SDS011;26523;52.504;13.498;2023-02-20T03:35:19;9.45;;;3.10;;
40807;SDS011;26523;52.504;13.498;2023-02-20T03:38:06;5.32;;;2.33;;
40807;SDS011;26523;52.504;13.498;2023-02-20T03:40:52;10.38;;;2.78;;
40807;SDS011;26523;52.504;13.498;2023-02-20T03:43:38;5.22;;;2.22;;
40807;SDS011;26523;52.504;13.498;2023-02-20T03:46:09;6.80;;;2.00;;
40807;SDS011;26523;52.504;13.498;2023-02-20T03:51:09;6.25;;;2.50;;
40807;SDS011;26523;52.504;13.498;2023-02-20T03:53:36;6.90;;;2.10;;
40807;SDS011;26523;52.504;13.498;2023-02-20T03:56:03;5.80;;;2.47;;
40807;SDS011;26523;52.504;13.498;2023-02-20T03:58:33;4.53;;;2.30;;
40807;SDS011;26523;52.504;13.498;2023-02-20T04:01:02;8.90;;;3.47;;
40807;SDS011;26523;52.504;13.498;2023-02-20T04:03:30;9.38;;;3.38;;
40807;SDS011;26523;52.504;13.498;2023-02-20T04:06:01;5.97;;;2.95;;
40807;SDS011;26523;52.504;13.498;2023-02-20T04:08:32;9.23;;;2.85;;
40807;SDS011;26523;52.504;13.498;2023-02-20T04:11:02;7.10;;;2.20;;
40807;SDS011;26523;52.504;13.498;2023-02-20T04:13:32;7.50;;;3.08;;
40807;SDS011;26523;52.504;13.498;2023-02-20T04:15:58;7.43;;;2.75;;
40807;SDS011;26523;52.504;13.498;2023-02-20T04:18:26;11.00;;;2.58;;
40807;SDS011;26523;52.504;13.498;2023-02-20T04:20:53;5.78;;;2.92;;
40807;SDS011;26523;52.504;13.498;2023-02-20T04:23:21;6.70;;;3.15;;
40807;SDS011;26523;52.504;13.498;2023-02-20T04:28:30;14.13;;;2.92;;
40807;SDS011;26523;52.504;13.498;2023-02-20T04:30:56;11.98;;;3.28;;
40807;SDS011;26523;52.504;13.498;2023-02-20T04:33:22;9.25;;;2.90;;
40807;SDS011;26523;52.504;13.498;2023-02-20T04:35:47;5.03;;;2.28;;
40807;SDS011;26523;52.504;13.498;2023-02-20T04:38:14;7.22;;;3.17;;
40807;SDS011;26523;52.504;13.498;2023-02-20T04:40:40;6.22;;;2.22;;
40807;SDS011;26523;52.504;13.498;2023-02-20T04:43:05;9.60;;;3.05;;
40807;SDS011;26523;52.504;13.498;2023-02-20T04:45:31;5.13;;;2.35;;
40807;SDS011;26523;52.504;13.498;2023-02-20T04:47:57;5.25;;;2.50;;
40807;SDS011;26523;52.504;13.498;2023-02-20T04:50:24;7.60;;;2.70;;
40807;SDS011;26523;52.504;13.498;2023-02-20T04:52:52;6.53;;;3.10;;
40807;SDS011;26523;52.504;13.498;2023-02-20T04:55:18;5.50;;;2.85;;
40807;SDS011;26523;52.504;13.498;2023-02-20T04:57:45;5.95;;;2.63;;
40807;SDS011;26523;52.504;13.498;2023-02-20T05:00:11;5.10;;;2.53;;
40807;SDS011;26523;52.504;13.498;2023-02-20T05:02:38;6.03;;;2.42;;
40807;SDS011;26523;52.504;13.498;2023-02-20T05:05:04;5.07;;;2.60;;
40807;SDS011;26523;52.504;13.498;2023-02-20T05:07:32;7.80;;;3.25;;
40807;SDS011;26523;52.504;13.498;2023-02-20T05:09:58;6.32;;;2.78;;
40807;SDS011;26523;52.504;13.498;2023-02-20T05:12:24;3.72;;;2.28;;
40807;SDS011;26523;52.504;13.498;2023-02-20T05:14:50;13.68;;;2.92;;
40807;SDS011;26523;52.504;13.498;2023-02-20T05:17:15;5.80;;;2.60;;
40807;SDS011;26523;52.504;13.498;2023-02-20T05:19:41;6.95;;;3.00;;
40807;SDS011;26523;52.504;13.498;2023-02-20T05:22:10;7.40;;;3.10;;
40807;SDS011;26523;52.504;13.498;2023-02-20T05:24:47;4.95;;;2.58;;
40807;SDS011;26523;52.504;13.498;2023-02-20T05:27:15;7.97;;;2.72;;
40807;SDS011;26523;52.504;13.498;2023-02-20T05:29:46;10.45;;;3.10;;
40807;SDS011;26523;52.504;13.498;2023-02-20T05:32:13;4.25;;;2.30;;
40807;SDS011;26523;52.504;13.498;2023-02-20T05:34:40;8.98;;;3.05;;
40807;SDS011;26523;52.504;13.498;2023-02-20T05:37:06;6.70;;;2.33;;
40807;SDS011;26523;52.504;13.498;2023-02-20T05:39:32;5.43;;;2.83;;
40807;SDS011;26523;52.504;13.498;2023-02-20T05:41:58;7.13;;;3.20;;
40807;SDS011;26523;52.504;13.498;2023-02-20T05:44:23;9.50;;;2.92;;
40807;SDS011;26523;52.504;13.498;2023-02-20T05:46:49;5.50;;;2.75;;
40807;SDS011;26523;52.504;13.498;2023-02-20T05:49:16;6.45;;;2.92;;
40807;SDS011;26523;52.504;13.498;2023-02-20T05:51:42;9.43;;;3.50;;
40807;SDS011;26523;52.504;13.498;2023-02-20T05:54:08;7.65;;;3.10;;
40807;SDS011;26523;52.504;13.498;2023-02-20T05:56:33;6.28;;;2.75;;
40807;SDS011;26523;52.504;13.498;2023-02-20T05:58:59;7.43;;;3.25;;
40807;SDS011;26523;52.504;13.498;2023-02-20T06:01:26;9.07;;;3.10;;
40807;SDS011;26523;52.504;13.498;2023-02-20T06:03:53;10.98;;;2.95;;
40807;SDS011;26523;52.504;13.498;2023-02-20T06:06:20;8.63;;;3.50;;
40807;SDS011;26523;52.504;13.498;2023-02-20T06:08:46;15.40;;;4.10;;
40807;SDS011;26523;52.504;13.498;2023-02-20T06:11:12;7.85;;;3.08;;
40807;SDS011;26523;52.504;13.498;2023-02-20T06:13:39;8.35;;;2.78;;
40807;SDS011;26523;52.504;13.498;2023-02-20T06:16:05;11.82;;;3.17;;
40807;SDS011;26523;52.504;13.498;2023-02-20T06:18:32;11.82;;;4.30;;
40807;SDS011;26523;52.504;13.498;2023-02-20T06:20:57;9.45;;;4.25;;
40807;SDS011;26523;52.504;13.498;2023-02-20T06:23:23;9.65;;;3.80;;
40807;SDS011;26523;52.504;13.498;2023-02-20T06:25:49;6.72;;;3.50;;
40807;SDS011;26523;52.504;13.498;2023-02-20T06:28:14;8.68;;;3.75;;
40807;SDS011;26523;52.504;13.498;2023-02-20T06:30:40;9.18;;;3.60;;
40807;SDS011;26523;52.504;13.498;2023-02-20T06:33:06;7.60;;;3.10;;
40807;SDS011;26523;52.504;13.498;2023-02-20T06:35:31;9.65;;;3.70;;
40807;SDS011;26523;52.504;13.498;2023-02-20T06:37:57;9.68;;;4.07;;
40807;SDS011;26523;52.504;13.498;2023-02-20T06:40:24;9.18;;;3.67;;
40807;SDS011;26523;52.504;13.498;2023-02-20T06:42:49;8.43;;;3.28;;
40807;SDS011;26523;52.504;13.498;2023-02-20T06:45:15;9.50;;;3.35;;
40807;SDS011;26523;52.504;13.498;2023-02-20T06:47:41;5.65;;;3.17;;
40807;SDS011;26523;52.504;13.498;2023-02-20T06:50:06;8.68;;;3.45;;
40807;SDS011;26523;52.504;13.498;2023-02-20T06:52:32;6.68;;;3.58;;
40807;SDS011;26523;52.504;13.498;2023-02-20T06:54:58;8.45;;;3.47;;
40807;SDS011;26523;52.504;13.498;2023-02-20T06:57:24;8.25;;;3.45;;
40807;SDS011;26523;52.504;13.498;2023-02-20T06:59:50;8.93;;;3.83;;
40807;SDS011;26523;52.504;13.498;2023-02-20T07:02:15;10.02;;;3.85;;
40807;SDS011;26523;52.504;13.498;2023-02-20T07:04:42;7.13;;;3.70;;
40807;SDS011;26523;52.504;13.498;2023-02-20T07:07:13;8.93;;;3.65;;
40807;SDS011;26523;52.504;13.498;2023-02-20T07:09:38;9.60;;;4.50;;
40807;SDS011;26523;52.504;13.498;2023-02-20T07:12:04;10.48;;;3.92;;
40807;SDS011;26523;52.504;13.498;2023-02-20T07:14:30;9.82;;;4.57;;
40807;SDS011;26523;52.504;13.498;2023-02-20T07:16:56;13.23;;;3.80;;
40807;SDS011;26523;52.504;13.498;2023-02-20T07:19:21;10.77;;;4.60;;
40807;SDS011;26523;52.504;13.498;2023-02-20T07:21:47;9.07;;;4.18;;
40807;SDS011;26523;52.504;13.498;2023-02-20T07:24:13;13.40;;;5.05;;
40807;SDS011;26523;52.504;13.498;2023-02-20T07:26:39;10.80;;;4.95;;
40807;SDS011;26523;52.504;13.498;2023-02-20T07:29:05;12.10;;;4.47;;
40807;SDS011;26523;52.504;13.498;2023-02-20T07:31:31;10.88;;;4.65;;
40807;SDS011;26523;52.504;13.498;2023-02-20T07:33:56;10.70;;;4.93;;
40807;SDS011;26523;52.504;13.498;2023-02-20T07:36:22;9.88;;;4.93;;
40807;SDS011;26523;52.504;13.498;2023-02-20T07:38:52;13.30;;;5.65;;
40807;SDS011;26523;52.504;13.498;2023-02-20T07:41:26;15.00;;;5.00;;
40807;SDS011;26523;52.504;13.498;2023-02-20T07:43:55;11.70;;;4.95;;
40807;SDS011;26523;52.504;13.498;2023-02-20T07:46:22;11.40;;;4.68;;
40807;SDS011;26523;52.504;13.498;2023-02-20T07:48:48;11.93;;;5.75;;
40807;SDS011;26523;52.504;13.498;2023-02-20T07:51:14;9.68;;;3.90;;
40807;SDS011;26523;52.504;13.498;2023-02-20T07:53:46;9.65;;;4.38;;
40807;SDS011;26523;52.504;13.498;2023-02-20T07:56:15;7.95;;;3.75;;
40807;SDS011;26523;52.504;13.498;2023-02-20T07:58:41;10.52;;;4.00;;
40807;SDS011;26523;52.504;13.498;2023-02-20T08:01:07;14.48;;;4.75;;
40807;SDS011;26523;52.504;13.498;2023-02-20T08:03:33;10.48;;;4.07;;
40807;SDS011;26523;52.504;13.498;2023-02-20T08:05:58;7.30;;;3.97;;
40807;SDS011;26523;52.504;13.498;2023-02-20T08:08:24;7.82;;;3.17;;
40807;SDS011;26523;52.504;13.498;2023-02-20T08:10:50;6.90;;;4.05;;
40807;SDS011;26523;52.504;13.498;2023-02-20T08:13:17;9.98;;;4.60;;
40807;SDS011;26523;52.504;13.498;2023-02-20T08:15:43;11.93;;;4.43;;
40807;SDS011;26523;52.504;13.498;2023-02-20T08:18:09;7.75;;;3.63;;
40807;SDS011;26523;52.504;13.498;2023-02-20T08:20:35;7.47;;;3.58;;
40807;SDS011;26523;52.504;13.498;2023-02-20T08:23:00;7.60;;;3.40;;
40807;SDS011;26523;52.504;13.498;2023-02-20T08:25:29;10.50;;;4.63;;
40807;SDS011;26523;52.504;13.498;2023-02-20T08:27:55;13.25;;;4.10;;
40807;SDS011;26523;52.504;13.498;2023-02-20T08:30:25;12.63;;;3.88;;
40807;SDS011;26523;52.504;13.498;2023-02-20T08:32:52;7.82;;;3.35;;
40807;SDS011;26523;52.504;13.498;2023-02-20T08:35:19;8.15;;;3.70;;
40807;SDS011;26523;52.504;13.498;2023-02-20T08:37:47;8.50;;;3.30;;
40807;SDS011;26523;52.504;13.498;2023-02-20T08:40:13;8.23;;;3.17;;
40807;SDS011;26523;52.504;13.498;2023-02-20T08:42:39;8.48;;;3.17;;
40807;SDS011;26523;52.504;13.498;2023-02-20T08:45:05;8.82;;;4.13;;
40807;SDS011;26523;52.504;13.498;2023-02-20T08:47:32;8.05;;;3.40;;
40807;SDS011;26523;52.504;13.498;2023-02-20T08:49:58;10.77;;;3.58;;
40807;SDS011;26523;52.504;13.498;2023-02-20T08:52:24;6.25;;;3.38;;
40807;SDS011;26523;52.504;13.498;2023-02-20T08:54:50;10.93;;;3.40;;
40807;SDS011;26523;52.504;13.498;2023-02-20T08:57:16;8.10;;;3.58;;
40807;SDS011;26523;52.504;13.498;2023-02-20T08:59:43;7.55;;;3.40;;
40807;SDS011;26523;52.504;13.498;2023-02-20T09:02:14;6.50;;;2.95;;
40807;SDS011;26523;52.504;13.498;2023-02-20T09:04:44;6.07;;;2.60;;
40807;SDS011;26523;52.504;13.498;2023-02-20T09:07:11;8.93;;;3.30;;
40807;SDS011;26523;52.504;13.498;2023-02-20T09:09:38;7.40;;;3.38;;
40807;SDS011;26523;52.504;13.498;2023-02-20T09:12:04;9.60;;;3.47;;
40807;SDS011;26523;52.504;13.498;2023-02-20T09:14:30;7.05;;;3.05;;
40807;SDS011;26523;52.504;13.498;2023-02-20T09:16:56;6.55;;;2.67;;
40807;SDS011;26523;52.504;13.498;2023-02-20T09:19:22;6.85;;;2.75;;
40807;SDS011;26523;52.504;13.498;2023-02-20T09:21:49;5.25;;;2.17;;
40807;SDS011;26523;52.504;13.498;2023-02-20T09:24:14;11.23;;;3.30;;
40807;SDS011;26523;52.504;13.498;2023-02-20T09:26:40;5.60;;;2.50;;
40807;SDS011;26523;52.504;13.498;2023-02-20T09:29:06;4.97;;;2.15;;
40807;SDS011;26523;52.504;13.498;2023-02-20T09:31:31;5.07;;;2.97;;
40807;SDS011;26523;52.504;13.498;2023-02-20T09:33:57;9.98;;;2.92;;
40807;SDS011;26523;52.504;13.498;2023-02-20T09:36:23;5.85;;;2.45;;
40807;SDS011;26523;52.504;13.498;2023-02-20T09:38:48;4.80;;;2.22;;
40807;SDS011;26523;52.504;13.498;2023-02-20T09:41:21;6.85;;;3.03;;
40807;SDS011;26523;52.504;13.498;2023-02-20T09:47:18;6.63;;;2.90;;
40807;SDS011;26523;52.504;13.498;2023-02-20T09:49:59;5.47;;;2.17;;
40807;SDS011;26523;52.504;13.498;2023-02-20T09:52:27;7.97;;;2.85;;
40807;SDS011;26523;52.504;13.498;2023-02-20T09:54:57;5.38;;;2.53;;
40807;SDS011;26523;52.504;13.498;2023-02-20T09:57:28;6.07;;;2.60;;
40807;SDS011;26523;52.504;13.498;2023-02-20T10:00:02;6.40;;;2.53;;
40807;SDS011;26523;52.504;13.498;2023-02-20T10:02:41;6.47;;;2.45;;
40807;SDS011;26523;52.504;13.498;2023-02-20T10:05:16;5.75;;;1.70;;
40807;SDS011;26523;52.504;13.498;2023-02-20T10:07:48;7.38;;;2.08;;
40807;SDS011;26523;52.504;13.498;2023-02-20T10:27:15;10.18;;;3.05;;
40807;SDS011;26523;52.504;13.498;2023-02-20T10:29:50;4.32;;;2.17;;
40807;SDS011;26523;52.504;13.498;2023-02-20T10:32:20;11.13;;;2.58;;
40807;SDS011;26523;52.504;13.498;2023-02-20T10:35:10;5.05;;;2.38;;
40807;SDS011;26523;52.504;13.498;2023-02-20T10:37:41;5.63;;;2.38;;
40807;SDS011;26523;52.504;13.498;2023-02-20T10:40:17;5.32;;;2.40;;
40807;SDS011;26523;52.504;13.498;2023-02-20T10:45:30;4.97;;;2.10;;
40807;SDS011;26523;52.504;13.498;2023-02-20T10:48:07;3.90;;;2.15;;
40807;SDS011;26523;52.504;13.498;2023-02-20T10:56:07;5.28;;;2.45;;
40807;SDS011;26523;52.504;13.498;2023-02-20T11:01:25;7.60;;;2.50;;
40807;SDS011;26523;52.504;13.498;2023-02-20T11:03:56;8.77;;;2.58;;
40807;SDS011;26523;52.504;13.498;2023-02-20T11:06:49;4.38;;;2.15;;
40807;SDS011;26523;52.504;13.498;2023-02-20T11:09:38;5.67;;;1.97;;
40807;SDS011;26523;52.504;13.498;2023-02-20T11:12:05;6.13;;;2.40;;
40807;SDS011;26523;52.504;13.498;2023-02-20T11:14:32;4.57;;;2.38;;
40807;SDS011;26523;52.504;13.498;2023-02-20T11:17:14;4.63;;;2.08;;
40807;SDS011;26523;52.504;13.498;2023-02-20T11:19:44;5.05;;;2.55;;
40807;SDS011;26523;52.504;13.498;2023-02-20T11:22:13;5.55;;;2.88;;
40807;SDS011;26523;52.504;13.498;2023-02-20T11:24:41;7.97;;;2.65;;
40807;SDS011;26523;52.504;13.498;2023-02-20T11:27:16;4.25;;;2.00;;
40807;SDS011;26523;52.504;13.498;2023-02-20T11:37:46;4.03;;;2.05;;
40807;SDS011;26523;52.504;13.498;2023-02-20T11:40:16;5.80;;;2.30;;
40807;SDS011;26523;52.504;13.498;2023-02-20T11:42:49;6.80;;;2.60;;
40807;SDS011;26523;52.504;13.498;2023-02-20T11:45:15;4.15;;;1.92;;
40807;SDS011;26523;52.504;13.498;2023-02-20T11:55:46;8.90;;;2.40;;
40807;SDS011;26523;52.504;13.498;2023-02-20T11:58:20;5.45;;;2.30;;
40807;SDS011;26523;52.504;13.498;2023-02-20T12:00:51;5.68;;;2.80;;
40807;SDS011;26523;52.504;13.498;2023-02-20T12:03:22;9.40;;;2.70;;
40807;SDS011;26523;52.504;13.498;2023-02-20T12:05:50;7.35;;;2.55;;
40807;SDS011;26523;52.504;13.498;2023-02-20T12:08:38;8.43;;;2.97;;
40807;SDS011;26523;52.504;13.498;2023-02-20T12:11:25;5.90;;;2.75;;
40807;SDS011;26523;52.504;13.498;2023-02-20T12:13:52;7.82;;;2.90;;
40807;SDS011;26523;52.504;13.498;2023-02-20T12:27:41;9.35;;;3.03;;
40807;SDS011;26523;52.504;13.498;2023-02-20T12:30:34;8.73;;;2.70;;
40807;SDS011;26523;52.504;13.498;2023-02-20T12:35:43;10.55;;;3.53;;
40807;SDS011;26523;52.504;13.498;2023-02-20T12:46:27;7.82;;;3.35;;
40807;SDS011;26523;52.504;13.498;2023-02-20T12:55:30;7.10;;;3.92;;
40807;SDS011;26523;52.504;13.498;2023-02-20T13:00:57;15.15;;;4.35;;
40807;SDS011;26523;52.504;13.498;2023-02-20T13:03:46;8.13;;;3.67;;
40807;SDS011;26523;52.504;13.498;2023-02-20T13:08:59;12.13;;;4.57;;
40807;SDS011;26523;52.504;13.498;2023-02-20T13:11:38;9.93;;;4.03;;
40807;SDS011;26523;52.504;13.498;2023-02-20T13:16:56;11.38;;;4.60;;
40807;SDS011;26523;52.504;13.498;2023-02-20T13:19:41;10.95;;;4.72;;
40807;SDS011;26523;52.504;13.498;2023-02-20T13:22:28;18.52;;;5.28;;
40807;SDS011;26523;52.504;13.498;2023-02-20T13:24:54;10.38;;;4.55;;
40807;SDS011;26523;52.504;13.498;2023-02-20T13:28:12;14.40;;;5.85;;
40807;SDS011;26523;52.504;13.498;2023-02-20T13:30:44;9.10;;;4.57;;
40807;SDS011;26523;52.504;13.498;2023-02-20T13:33:30;15.98;;;4.97;;
40807;SDS011;26523;52.504;13.498;2023-02-20T13:35:56;13.25;;;5.55;;
40807;SDS011;26523;52.504;13.498;2023-02-20T13:38:25;12.23;;;5.50;;
40807;SDS011;26523;52.504;13.498;2023-02-20T13:45:47;9.30;;;4.95;;
40807;SDS011;26523;52.504;13.498;2023-02-20T13:53:43;12.25;;;5.55;;
40807;SDS011;26523;52.504;13.498;2023-02-20T13:56:22;14.52;;;5.90;;
40807;SDS011;26523;52.504;13.498;2023-02-20T13:58:57;13.77;;;5.38;;
40807;SDS011;26523;52.504;13.498;2023-02-20T14:01:23;14.77;;;5.38;;
40807;SDS011;26523;52.504;13.498;2023-02-20T14:04:02;16.20;;;5.15;;
40807;SDS011;26523;52.504;13.498;2023-02-20T14:06:29;12.02;;;5.03;;
40807;SDS011;26523;52.504;13.498;2023-02-20T14:09:08;13.00;;;5.68;;
40807;SDS011;26523;52.504;13.498;2023-02-20T14:11:36;11.00;;;5.45;;
40807;SDS011;26523;52.504;13.498;2023-02-20T14:14:10;14.18;;;6.03;;
40807;SDS011;26523;52.504;13.498;2023-02-20T14:17:10;9.35;;;3.70;;
40807;SDS011;26523;52.504;13.498;2023-02-20T14:19:47;9.90;;;4.65;;
40807;SDS011;26523;52.504;13.498;2023-02-20T14:27:28;12.63;;;4.90;;
40807;SDS011;26523;52.504;13.498;2023-02-20T14:30:29;11.07;;;4.45;;
40807;SDS011;26523;52.504;13.498;2023-02-20T14:32:53;11.15;;;4.85;;
40807;SDS011;26523;52.504;13.498;2023-02-20T14:40:36;11.85;;;4.50;;
40807;SDS011;26523;52.504;13.498;2023-02-20T14:43:07;15.30;;;5.20;;
40807;SDS011;26523;52.504;13.498;2023-02-20T14:45:44;18.55;;;5.82;;
40807;SDS011;26523;52.504;13.498;2023-02-20T14:48:25;26.58;;;5.95;;
40807;SDS011;26523;52.504;13.498;2023-02-20T14:53:59;15.73;;;5.13;;
40807;SDS011;26523;52.504;13.498;2023-02-20T14:56:45;10.60;;;4.35;;
40807;SDS011;26523;52.504;13.498;2023-02-20T15:01:41;13.10;;;3.80;;
40807;SDS011;26523;52.504;13.498;2023-02-20T15:04:16;10.18;;;4.25;;
40807;SDS011;26523;52.504;13.498;2023-02-20T15:06:47;8.75;;;4.07;;
40807;SDS011;26523;52.504;13.498;2023-02-20T15:09:14;12.00;;;3.78;;
40807;SDS011;26523;52.504;13.498;2023-02-20T15:11:49;8.73;;;3.40;;
40807;SDS011;26523;52.504;13.498;2023-02-20T15:14:21;11.15;;;4.38;;
40807;SDS011;26523;52.504;13.498;2023-02-20T15:16:48;25.38;;;5.72;;
40807;SDS011;26523;52.504;13.498;2023-02-20T15:19:32;11.95;;;3.55;;
40807;SDS011;26523;52.504;13.498;2023-02-20T15:22:01;10.98;;;4.32;;
40807;SDS011;26523;52.504;13.498;2023-02-20T15:24:37;17.50;;;4.55;;
40807;SDS011;26523;52.504;13.498;2023-02-20T15:27:12;10.27;;;3.97;;
40807;SDS011;26523;52.504;13.498;2023-02-20T15:29:40;9.23;;;3.70;;
40807;SDS011;26523;52.504;13.498;2023-02-20T15:32:27;12.23;;;3.88;;
40807;SDS011;26523;52.504;13.498;2023-02-20T15:34:57;9.90;;;3.30;;
40807;SDS011;26523;52.504;13.498;2023-02-20T15:37:31;17.50;;;3.72;;
40807;SDS011;26523;52.504;13.498;2023-02-20T15:40:05;6.72;;;3.22;;
40807;SDS011;26523;52.504;13.498;2023-02-20T15:42:40;27.95;;;3.83;;
40807;SDS011;26523;52.504;13.498;2023-02-20T15:45:06;9.90;;;4.05;;
40807;SDS011;26523;52.504;13.498;2023-02-20T15:47:31;8.38;;;3.58;;
40807;SDS011;26523;52.504;13.498;2023-02-20T15:49:57;7.03;;;3.42;;
40807;SDS011;26523;52.504;13.498;2023-02-20T15:52:23;8.95;;;3.50;;
40807;SDS011;26523;52.504;13.498;2023-02-20T15:54:53;11.93;;;3.83;;
40807;SDS011;26523;52.504;13.498;2023-02-20T15:57:20;9.98;;;3.97;;
40807;SDS011;26523;52.504;13.498;2023-02-20T15:59:46;10.35;;;3.58;;
40807;SDS011;26523;52.504;13.498;2023-02-20T16:02:12;10.70;;;3.78;;
40807;SDS011;26523;52.504;13.498;2023-02-20T16:04:43;9.75;;;3.38;;
40807;SDS011;26523;52.504;13.498;2023-02-20T16:07:09;15.32;;;3.75;;
40807;SDS011;26523;52.504;13.498;2023-02-20T16:09:35;11.50;;;4.38;;
40807;SDS011;26523;52.504;13.498;2023-02-20T16:12:01;13.77;;;3.88;;
40807;SDS011;26523;52.504;13.498;2023-02-20T16:14:26;9.35;;;3.65;;
40807;SDS011;26523;52.504;13.498;2023-02-20T16:16:52;9.40;;;4.45;;
40807;SDS011;26523;52.504;13.498;2023-02-20T16:19:19;9.48;;;3.97;;
40807;SDS011;26523;52.504;13.498;2023-02-20T16:21:46;8.32;;;4.03;;
40807;SDS011;26523;52.504;13.498;2023-02-20T16:24:13;8.20;;;3.80;;
40807;SDS011;26523;52.504;13.498;2023-02-20T16:26:39;10.60;;;4.28;;
40807;SDS011;26523;52.504;13.498;2023-02-20T16:29:16;8.80;;;4.05;;
40807;SDS011;26523;52.504;13.498;2023-02-20T16:34:21;12.15;;;4.05;;
40807;SDS011;26523;52.504;13.498;2023-02-20T16:36:51;8.60;;;3.67;;
40807;SDS011;26523;52.504;13.498;2023-02-20T16:39:17;10.95;;;3.75;;
40807;SDS011;26523;52.504;13.498;2023-02-20T16:41:44;7.40;;;3.97;;
40807;SDS011;26523;52.504;13.498;2023-02-20T16:44:14;8.23;;;3.95;;
40807;SDS011;26523;52.504;13.498;2023-02-20T16:46:47;8.80;;;4.00;;
40807;SDS011;26523;52.504;13.498;2023-02-20T16:49:13;11.63;;;4.20;;
40807;SDS011;26523;52.504;13.498;2023-02-20T16:51:40;9.93;;;4.03;;
40807;SDS011;26523;52.504;13.498;2023-02-20T16:54:23;7.57;;;3.25;;
40807;SDS011;26523;52.504;13.498;2023-02-20T16:56:49;8.93;;;3.90;;
40807;SDS011;26523;52.504;13.498;2023-02-20T16:59:15;9.23;;;3.42;;
40807;SDS011;26523;52.504;13.498;2023-02-20T17:01:41;8.00;;;3.58;;
40807;SDS011;26523;52.504;13.498;2023-02-20T17:04:07;10.27;;;3.13;;
40807;SDS011;26523;52.504;13.498;2023-02-20T17:06:33;10.88;;;4.13;;
40807;SDS011;26523;52.504;13.498;2023-02-20T17:08:59;10.30;;;4.07;;
40807;SDS011;26523;52.504;13.498;2023-02-20T17:11:25;10.50;;;3.75;;
40807;SDS011;26523;52.504;13.498;2023-02-20T17:13:53;9.13;;;3.58;;
40807;SDS011;26523;52.504;13.498;2023-02-20T17:16:18;10.55;;;4.03;;
40807;SDS011;26523;52.504;13.498;2023-02-20T17:18:44;10.38;;;3.83;;
40807;SDS011;26523;52.504;13.498;2023-02-20T17:21:10;10.32;;;4.03;;
40807;SDS011;26523;52.504;13.498;2023-02-20T17:23:36;8.90;;;3.97;;